Terminal Aerodrome Forecast
Issued by NWS

Home | Current Version | Previous Version | Text Only | Print | Product List | Glossary On
Versions: 1 2 3 4 5 6 7 8 9 10 11 12 13 14 15 16 17 18 19 20 21
000
FTUS44 KEWX 272330
TAFSSF
TAF
KSSF 272330Z 2800/2824 06004KT P6SM FEW250
     FM281000 03003KT P6SM SCT015
      TEMPO 2811/2814 BKN015
     FM281700 05005KT P6SM SCT025 BKN040
     FM282000 06006KT P6SM VCTS BKN040CB BKN250=

USA.gov is the U.S. government's official web portal to all federal, state and local government web resources and services.